Time;durP1;ratioP1;P1;durP2;ratioP2;P2;SDS_P1;SDS_P2;PMS_P1;PMS_P2;Temp;Humidity;BMP_temperature;BMP_pressure;BME280_temperature;BME280_humidity;BME280_pressure;Samples;Min_cycle;Max_cycle;Signal;HPM_P1;HPM_P2
2022/07/01 00:01:59;;;;;;;4.57;1.23;;;15.60;99.90;;;;;;5042697;28;20040;-78
2022/07/01 00:04:26;;;;;;;4.38;1.20;;;15.70;99.90;;;;;;5039942;28;21704;-78
2022/07/01 00:06:56;;;;;;;4.80;1.13;;;15.70;99.90;;;;;;5045338;28;20139;-78
2022/07/01 00:09:22;;;;;;;3.90;1.10;;;15.80;99.90;;;;;;5038856;28;20041;-78
2022/07/01 00:11:48;;;;;;;3.10;1.10;;;15.80;99.90;;;;;;5040894;28;20041;-78
2022/07/01 00:14:13;;;;;;;3.42;1.33;;;15.90;99.90;;;;;;5045365;28;20112;-79
2022/07/01 00:16:39;;;;;;;4.15;1.13;;;15.90;99.90;;;;;;5042031;28;20052;-78
2022/07/01 00:19:05;;;;;;;3.53;1.38;;;16.00;99.90;;;;;;5043711;28;20037;-78
2022/07/01 00:21:31;;;;;;;2.88;1.05;;;16.00;99.90;;;;;;5041370;28;20498;-78
2022/07/01 00:23:57;;;;;;;4.40;1.40;;;16.10;99.90;;;;;;5039973;28;20045;-78
2022/07/01 00:26:22;;;;;;;2.55;1.10;;;16.00;99.90;;;;;;5042268;28;20586;-78
2022/07/01 00:28:48;;;;;;;3.92;1.10;;;16.00;99.90;;;;;;5041043;28;20036;-79
2022/07/01 00:31:14;;;;;;;3.85;1.35;;;16.10;99.90;;;;;;5041893;28;20534;-79
2022/07/01 00:33:39;;;;;;;3.78;1.23;;;16.10;99.90;;;;;;5042493;28;20523;-79
2022/07/01 00:36:05;;;;;;;4.38;1.20;;;16.00;99.90;;;;;;5042884;28;20120;-80
2022/07/01 00:38:30;;;;;;;3.53;1.40;;;16.10;99.90;;;;;;5046104;28;20206;-79
2022/07/01 00:40:56;;;;;;;3.28;1.08;;;16.00;99.90;;;;;;5046894;28;20033;-80
2022/07/01 00:43:24;;;;;;;4.47;1.42;;;15.90;99.90;;;;;;5045923;28;20124;-78
2022/07/01 00:45:50;;;;;;;3.53;1.13;;;15.90;99.90;;;;;;5048199;28;20044;-78
2022/07/01 00:48:17;;;;;;;4.05;1.05;;;15.90;99.90;;;;;;5028744;28;20128;-78
2022/07/01 00:50:43;;;;;;;2.53;1.00;;;15.80;99.90;;;;;;5043298;28;20045;-80
2022/07/01 00:53:09;;;;;;;3.75;1.10;;;15.70;99.90;;;;;;5044770;28;20041;-79
2022/07/01 00:55:34;;;;;;;3.35;1.20;;;15.70;99.90;;;;;;5029373;28;20052;-79
2022/07/01 00:58:00;;;;;;;3.53;1.17;;;15.70;99.90;;;;;;5044450;28;20636;-79
2022/07/01 01:00:26;;;;;;;3.35;1.15;;;15.70;99.90;;;;;;5044203;28;20359;-79
2022/07/01 01:02:53;;;;;;;3.65;0.98;;;15.80;99.90;;;;;;5044501;28;20098;-79
2022/07/01 01:05:20;;;;;;;3.00;0.90;;;15.80;99.90;;;;;;5060843;28;20033;-80
2022/07/01 01:07:47;;;;;;;2.63;1.08;;;15.80;99.90;;;;;;5046217;28;20431;-80
2022/07/01 01:10:14;;;;;;;3.38;1.15;;;15.80;99.90;;;;;;5046793;28;20136;-80
2022/07/01 01:12:40;;;;;;;2.67;0.80;;;15.80;99.90;;;;;;5045933;28;20041;-80
2022/07/01 01:15:06;;;;;;;1.73;0.80;;;15.90;99.90;;;;;;5042902;28;20054;-80
2022/07/01 01:17:32;;;;;;;2.75;1.10;;;15.90;99.90;;;;;;5043464;28;20049;-80
2022/07/01 01:19:57;;;;;;;3.60;0.95;;;15.90;99.90;;;;;;5046481;28;20164;-80
2022/07/01 01:22:23;;;;;;;3.65;1.30;;;16.00;99.90;;;;;;5045296;28;21840;-80
2022/07/01 01:24:49;;;;;;;2.42;1.27;;;16.00;99.90;;;;;;5026581;28;20064;-78
2022/07/01 01:27:16;;;;;;;5.70;1.10;;;16.00;99.90;;;;;;5045455;28;20413;-79
2022/07/01 01:29:42;;;;;;;3.88;1.20;;;15.90;99.90;;;;;;5045891;28;20048;-79
2022/07/01 01:32:08;;;;;;;2.40;0.95;;;15.90;99.90;;;;;;5043281;28;20069;-80
2022/07/01 01:34:36;;;;;;;2.38;1.10;;;15.80;99.90;;;;;;5042943;28;20490;-80
2022/07/01 01:37:03;;;;;;;3.53;1.00;;;15.90;99.90;;;;;;5055278;28;20069;-79
2022/07/01 01:39:29;;;;;;;3.28;1.10;;;15.90;99.90;;;;;;5045054;28;20043;-80
2022/07/01 01:41:54;;;;;;;3.67;1.13;;;15.90;99.90;;;;;;5043296;28;20112;-80
2022/07/01 01:44:20;;;;;;;3.25;1.02;;;15.90;99.90;;;;;;5043772;28;20056;-80
2022/07/01 01:46:45;;;;;;;3.13;1.30;;;16.00;99.90;;;;;;5044265;28;20045;-79
2022/07/01 01:49:12;;;;;;;2.78;1.17;;;16.00;99.90;;;;;;5043447;28;20422;-79
2022/07/01 01:51:37;;;;;;;2.53;1.30;;;16.00;99.90;;;;;;5047289;28;20048;-79
2022/07/01 01:54:04;;;;;;;3.47;1.20;;;16.00;99.90;;;;;;5045522;28;20048;-79
2022/07/01 01:56:30;;;;;;;2.35;1.15;;;16.00;99.90;;;;;;5046411;28;20558;-79
2022/07/01 01:58:56;;;;;;;2.30;1.00;;;16.00;99.90;;;;;;5030521;28;20063;-79
2022/07/01 02:01:22;;;;;;;1.83;1.10;;;16.00;99.90;;;;;;5043805;28;20560;-79
2022/07/01 02:03:50;;;;;;;1.70;0.93;;;16.00;99.90;;;;;;5046838;28;20041;-79
2022/07/01 02:06:17;;;;;;;1.23;0.80;;;16.00;99.90;;;;;;5046444;28;20456;-79
2022/07/01 02:08:43;;;;;;;2.20;0.88;;;16.00;99.90;;;;;;5045202;28;20084;-79
2022/07/01 02:11:08;;;;;;;2.38;1.23;;;16.00;99.90;;;;;;5043357;28;20087;-79
2022/07/01 02:13:35;;;;;;;1.25;0.90;;;16.00;99.90;;;;;;5044546;28;20124;-79
2022/07/01 02:16:01;;;;;;;2.65;1.00;;;16.00;99.90;;;;;;5043899;28;20056;-79
2022/07/01 02:18:27;;;;;;;3.33;1.05;;;16.00;99.90;;;;;;5044737;28;20487;-79
2022/07/01 02:20:53;;;;;;;3.58;1.20;;;16.00;99.90;;;;;;5045609;28;20040;-78
2022/07/01 02:23:19;;;;;;;1.42;1.00;;;16.00;99.90;;;;;;5044214;28;20068;-78
2022/07/01 02:25:46;;;;;;;2.92;1.15;;;16.00;99.90;;;;;;5045055;28;20036;-78
2022/07/01 02:28:12;;;;;;;3.35;1.15;;;16.00;99.90;;;;;;5041843;28;20048;-79
2022/07/01 02:30:37;;;;;;;1.75;1.02;;;15.90;99.90;;;;;;5043877;28;20040;-78
2022/07/01 02:33:07;;;;;;;2.03;1.35;;;15.90;99.90;;;;;;5044184;28;20122;-78
2022/07/01 02:35:34;;;;;;;3.88;1.42;;;16.00;99.90;;;;;;5041935;28;20071;-78
2022/07/01 02:38:00;;;;;;;4.40;1.38;;;15.90;99.90;;;;;;5044400;28;20160;-78
2022/07/01 02:40:25;;;;;;;2.47;1.40;;;15.90;99.90;;;;;;5044270;28;20171;-78
2022/07/01 02:42:51;;;;;;;3.95;1.40;;;15.80;99.90;;;;;;5043786;28;20123;-78
2022/07/01 02:45:16;;;;;;;3.33;1.52;;;15.80;99.90;;;;;;5026128;28;20028;-78
2022/07/01 02:47:44;;;;;;;2.67;1.60;;;15.70;99.90;;;;;;5044618;28;20783;-78
2022/07/01 02:50:11;;;;;;;3.50;1.70;;;15.70;99.90;;;;;;5041720;28;20036;-78
2022/07/01 02:52:38;;;;;;;6.03;1.70;;;15.70;99.90;;;;;;5056555;28;20033;-78
2022/07/01 02:55:06;;;;;;;3.45;1.80;;;15.70;99.90;;;;;;5041384;28;20059;-78
2022/07/01 02:57:32;;;;;;;4.80;2.05;;;15.70;99.90;;;;;;5042589;28;20530;-78
2022/07/01 02:59:58;;;;;;;2.60;2.00;;;15.70;99.90;;;;;;5044930;28;20033;-78
2022/07/01 03:02:24;;;;;;;2.90;2.10;;;15.60;99.90;;;;;;5042326;28;20037;-78
2022/07/01 03:04:50;;;;;;;2.13;1.88;;;15.60;99.90;;;;;;5044285;28;20064;-78
2022/07/01 03:07:17;;;;;;;3.45;2.08;;;15.60;99.90;;;;;;5055298;28;20173;-78
2022/07/01 03:09:43;;;;;;;3.75;2.08;;;15.50;99.90;;;;;;5042419;28;20049;-78
2022/07/01 03:12:25;;;;;;;4.35;2.20;;;15.60;99.90;;;;;;5044062;28;20062;-77
2022/07/01 03:14:51;;;;;;;3.53;2.25;;;15.70;99.90;;;;;;5043342;28;20044;-78
2022/07/01 03:17:18;;;;;;;2.72;1.92;;;15.70;99.90;;;;;;5042903;28;20527;-78
2022/07/01 03:19:43;;;;;;;4.45;2.08;;;15.70;99.90;;;;;;5045603;28;20043;-78
2022/07/01 03:22:09;;;;;;;5.88;2.15;;;15.60;99.90;;;;;;5039498;28;20033;-78
2022/07/01 03:24:35;;;;;;;3.85;1.80;;;15.60;99.90;;;;;;5055819;28;20407;-78
2022/07/01 03:27:00;;;;;;;3.60;2.47;;;15.60;99.90;;;;;;5040295;28;20036;-78
2022/07/01 03:29:26;;;;;;;4.72;2.35;;;15.60;99.90;;;;;;5043561;28;20453;-78
2022/07/01 03:31:51;;;;;;;4.32;2.20;;;15.50;99.90;;;;;;5043119;28;20029;-78
2022/07/01 03:34:17;;;;;;;3.88;2.10;;;15.50;99.90;;;;;;5041884;28;20140;-78
2022/07/01 03:36:42;;;;;;;3.75;2.20;;;15.50;99.90;;;;;;5042770;28;20033;-78
2022/07/01 03:39:08;;;;;;;3.65;2.30;;;15.50;99.90;;;;;;5043672;28;20033;-77
2022/07/01 03:41:34;;;;;;;4.22;2.38;;;15.50;99.90;;;;;;5041353;28;20033;-78
2022/07/01 03:43:59;;;;;;;3.78;2.53;;;15.50;99.90;;;;;;5040366;28;20453;-78
2022/07/01 03:46:25;;;;;;;4.00;2.60;;;15.40;99.90;;;;;;5043116;28;20037;-78
2022/07/01 03:48:50;;;;;;;5.35;2.58;;;15.50;99.90;;;;;;5025910;28;20041;-78
2022/07/01 03:51:16;;;;;;;4.40;2.38;;;15.50;99.90;;;;;;5042333;28;20476;-78
2022/07/01 03:56:25;;;;;;;3.88;2.42;;;15.50;99.90;;;;;;5042407;28;20494;-78
2022/07/01 03:58:51;;;;;;;4.78;2.40;;;15.60;99.90;;;;;;5041834;28;20041;-78
2022/07/01 04:01:16;;;;;;;4.25;2.63;;;15.50;99.90;;;;;;5043488;28;20115;-78
2022/07/01 04:03:42;;;;;;;5.78;2.50;;;15.60;99.90;;;;;;5040929;28;20501;-77
2022/07/01 04:06:08;;;;;;;4.07;2.92;;;15.60;99.90;;;;;;5044602;28;20556;-78
2022/07/01 04:08:34;;;;;;;3.67;2.67;;;15.60;99.90;;;;;;5040738;28;20044;-78
2022/07/01 04:11:00;;;;;;;5.05;2.78;;;15.60;99.90;;;;;;5039826;28;20399;-78
2022/07/01 04:13:26;;;;;;;4.50;2.88;;;15.60;99.90;;;;;;5041281;28;20040;-78
2022/07/01 04:15:52;;;;;;;5.50;3.08;;;15.60;99.90;;;;;;5041088;28;20071;-77
2022/07/01 04:18:18;;;;;;;4.35;3.05;;;15.60;99.90;;;;;;5041749;28;20108;-78
2022/07/01 04:22:32;;;;;;;5.32;3.10;;;15.60;99.90;;;;;;5043961;28;20120;-78
2022/07/01 04:23:29;;;;;;;3.42;3.00;;;15.60;99.90;;;;;;5053794;28;20124;-78
2022/07/01 04:25:54;;;;;;;5.80;2.88;;;15.60;99.90;;;;;;5041248;28;21255;-78
2022/07/01 04:28:20;;;;;;;6.45;3.70;;;15.50;99.90;;;;;;5039852;28;20238;-78
2022/07/01 04:30:45;;;;;;;6.60;3.60;;;15.50;99.90;;;;;;5043079;28;20035;-78
2022/07/01 04:33:12;;;;;;;4.80;3.55;;;15.50;99.90;;;;;;5039708;28;20087;-78
2022/07/01 04:35:39;;;;;;;4.35;3.70;;;15.50;99.90;;;;;;5040613;28;20064;-77
2022/07/01 04:38:05;;;;;;;5.70;3.75;;;15.50;99.90;;;;;;5041493;28;20055;-77
2022/07/01 04:40:30;;;;;;;5.28;3.53;;;15.50;99.90;;;;;;5041967;28;20128;-77
2022/07/01 04:42:56;;;;;;;4.47;3.65;;;15.50;99.90;;;;;;5040964;28;20033;-77
2022/07/01 04:45:21;;;;;;;7.57;3.88;;;15.50;99.90;;;;;;5022905;28;20040;-78
2022/07/01 04:47:47;;;;;;;8.77;4.90;;;15.50;99.90;;;;;;5040657;28;20041;-77
2022/07/01 04:50:12;;;;;;;5.20;4.70;;;15.50;99.90;;;;;;5041284;28;20055;-78
2022/07/01 04:52:38;;;;;;;7.25;4.95;;;15.50;99.90;;;;;;5024801;28;20132;-78
2022/07/01 04:55:04;;;;;;;7.28;5.43;;;15.50;99.90;;;;;;5038830;28;20521;-78
2022/07/01 04:57:30;;;;;;;8.93;5.38;;;15.50;99.90;;;;;;5043076;28;20478;-78
2022/07/01 04:59:55;;;;;;;8.45;5.85;;;15.60;99.90;;;;;;5041118;28;20068;-78
2022/07/01 05:02:21;;;;;;;13.48;7.88;;;15.60;99.90;;;;;;5040421;28;20118;-78
2022/07/01 05:04:46;;;;;;;9.52;7.28;;;15.50;99.90;;;;;;5042038;28;20115;-78
2022/07/01 05:07:27;;;;;;;11.93;8.50;;;15.60;99.90;;;;;;5039708;28;20048;-78
2022/07/01 05:09:58;;;;;;;12.55;9.05;;;15.50;99.90;;;;;;5040878;28;20041;-78
2022/07/01 05:12:24;;;;;;;13.13;9.50;;;15.50;99.90;;;;;;5041655;28;20049;-78
2022/07/01 05:14:50;;;;;;;14.55;10.40;;;15.50;99.90;;;;;;5040346;28;20051;-78
2022/07/01 05:17:16;;;;;;;13.85;10.13;;;15.60;99.90;;;;;;5041466;28;20088;-78
2022/07/01 05:22:26;;;;;;;14.77;11.23;;;15.60;99.90;;;;;;5045635;28;20044;-78
2022/07/01 05:24:51;;;;;;;12.68;10.90;;;15.50;99.90;;;;;;5043539;28;20120;-78
2022/07/01 05:27:17;;;;;;;15.20;12.48;;;15.60;99.90;;;;;;5043443;28;20427;-77
2022/07/01 05:29:43;;;;;;;15.90;13.30;;;15.60;99.90;;;;;;5042538;28;20052;-77
2022/07/01 05:32:08;;;;;;;17.63;14.55;;;15.50;99.90;;;;;;5044163;28;20045;-77
2022/07/01 05:34:35;;;;;;;21.20;13.93;;;15.60;99.90;;;;;;5043238;28;20036;-77
2022/07/01 05:37:01;;;;;;;18.33;14.50;;;15.60;99.90;;;;;;5045263;28;20278;-78
2022/07/01 05:39:27;;;;;;;19.70;14.82;;;15.70;99.90;;;;;;5045785;28;20040;-79
2022/07/01 05:41:52;;;;;;;18.63;15.35;;;15.60;99.90;;;;;;5056539;28;20039;-77
2022/07/01 05:44:18;;;;;;;21.50;15.38;;;15.70;99.90;;;;;;5041271;28;20036;-77
2022/07/01 05:46:43;;;;;;;21.45;15.55;;;15.70;99.90;;;;;;5040234;28;20088;-77
2022/07/01 05:49:09;;;;;;;19.92;14.85;;;15.70;99.90;;;;;;5046218;28;20044;-77
2022/07/01 05:51:34;;;;;;;20.20;16.33;;;15.70;99.90;;;;;;5043214;28;21627;-77
2022/07/01 05:54:00;;;;;;;20.98;15.50;;;15.80;99.90;;;;;;5042655;28;20044;-77
2022/07/01 05:56:26;;;;;;;18.48;14.82;;;15.90;99.90;;;;;;5057206;28;20041;-77
2022/07/01 05:58:52;;;;;;;19.02;15.88;;;15.90;99.90;;;;;;5043435;28;20037;-77
2022/07/01 06:01:18;;;;;;;18.25;15.73;;;15.80;99.90;;;;;;5046062;28;20041;-77
2022/07/01 06:03:43;;;;;;;23.10;17.45;;;15.90;99.90;;;;;;5044349;28;20407;-77
2022/07/01 06:06:09;;;;;;;24.05;17.55;;;16.00;99.90;;;;;;5043168;28;20047;-77
2022/07/01 06:08:34;;;;;;;22.23;16.98;;;16.10;99.90;;;;;;5043694;28;20112;-77
2022/07/01 06:11:00;;;;;;;22.27;17.50;;;16.10;99.90;;;;;;5043168;28;20769;-76
2022/07/01 06:13:26;;;;;;;22.00;18.02;;;16.20;99.90;;;;;;5029904;28;20044;-77
2022/07/01 06:15:52;;;;;;;22.08;16.92;;;16.30;99.90;;;;;;5043104;28;20048;-76
2022/07/01 06:18:17;;;;;;;24.25;16.88;;;16.30;99.90;;;;;;5043149;28;20045;-77
2022/07/01 06:20:43;;;;;;;23.92;18.17;;;16.40;99.90;;;;;;5046566;28;20045;-77
2022/07/01 06:23:08;;;;;;;22.55;17.95;;;16.50;99.90;;;;;;5042427;28;20111;-77
2022/07/01 06:25:34;;;;;;;24.48;18.40;;;16.50;99.90;;;;;;5044180;28;20041;-77
2022/07/01 06:27:59;;;;;;;24.05;18.70;;;16.60;99.90;;;;;;5043076;28;20040;-78
2022/07/01 06:30:25;;;;;;;23.65;18.42;;;16.60;99.90;;;;;;5033222;28;20554;-77
2022/07/01 06:32:51;;;;;;;22.63;18.67;;;16.70;99.90;;;;;;5039423;28;20050;-76
2022/07/01 06:35:16;;;;;;;26.13;18.05;;;16.70;99.90;;;;;;5051664;28;20041;-74
2022/07/01 06:37:42;;;;;;;21.98;18.10;;;16.80;99.90;;;;;;5037273;28;20049;-75
2022/07/01 06:40:07;;;;;;;26.95;20.27;;;16.90;99.90;;;;;;5049725;28;20108;-75
2022/07/01 06:42:34;;;;;;;23.00;18.77;;;16.90;99.90;;;;;;5037524;28;20164;-75
2022/07/01 06:44:59;;;;;;;24.48;18.73;;;16.90;99.90;;;;;;5014470;28;20041;-76
2022/07/01 06:47:26;;;;;;;25.08;18.25;;;16.90;99.90;;;;;;5044346;28;20525;-74
2022/07/01 06:49:52;;;;;;;21.75;18.67;;;16.80;99.90;;;;;;5042898;28;20102;-74
2022/07/01 06:52:17;;;;;;;23.73;19.63;;;16.90;99.90;;;;;;5042611;28;20036;-75
2022/07/01 06:54:43;;;;;;;26.42;19.25;;;16.90;99.90;;;;;;5056270;28;20032;-75
2022/07/01 06:57:08;;;;;;;24.80;19.23;;;16.90;99.90;;;;;;5027283;28;20087;-75
2022/07/01 06:59:34;;;;;;;23.95;19.10;;;16.90;99.90;;;;;;5044771;28;20041;-76
2022/07/01 07:02:00;;;;;;;26.45;18.38;;;17.00;99.90;;;;;;5039885;28;20388;-75
2022/07/01 07:04:26;;;;;;;23.02;18.02;;;17.00;99.90;;;;;;5036876;28;20465;-75
2022/07/01 07:06:54;;;;;;;23.25;18.20;;;17.10;99.90;;;;;;5043470;28;20059;-76
2022/07/01 07:09:19;;;;;;;24.75;19.00;;;17.10;99.90;;;;;;5024627;28;20069;-78
2022/07/01 07:11:45;;;;;;;23.73;19.10;;;17.10;99.90;;;;;;5042053;28;20060;-78
2022/07/01 07:14:11;;;;;;;22.38;18.02;;;17.10;99.90;;;;;;5043839;28;20473;-78
2022/07/01 07:16:37;;;;;;;23.48;19.00;;;17.00;99.90;;;;;;5043691;28;20470;-77
2022/07/01 07:19:02;;;;;;;23.17;18.80;;;16.90;99.90;;;;;;5042097;28;20037;-77
2022/07/01 07:21:28;;;;;;;22.02;17.95;;;16.90;99.90;;;;;;5044640;28;20033;-78
2022/07/01 07:23:53;;;;;;;21.15;17.17;;;16.90;99.90;;;;;;5039672;28;20045;-78
2022/07/01 07:26:19;;;;;;;20.25;17.77;;;17.00;99.90;;;;;;5041507;28;20040;-78
2022/07/01 07:28:45;;;;;;;20.08;17.23;;;17.10;99.90;;;;;;5045035;28;20041;-78
2022/07/01 07:31:10;;;;;;;23.05;16.63;;;17.30;99.90;;;;;;5041764;28;20047;-78
2022/07/01 07:33:36;;;;;;;20.73;16.92;;;17.30;99.90;;;;;;5042209;28;20068;-77
2022/07/01 07:36:01;;;;;;;21.95;16.58;;;17.40;99.90;;;;;;5042681;28;20478;-78
2022/07/01 07:38:27;;;;;;;17.73;15.80;;;17.40;99.90;;;;;;5025691;28;20040;-77
2022/07/01 07:40:52;;;;;;;17.77;15.98;;;17.30;99.90;;;;;;5056055;28;20082;-78
2022/07/01 07:43:18;;;;;;;22.50;16.00;;;17.40;99.90;;;;;;5053957;28;20461;-78
2022/07/01 07:45:43;;;;;;;21.77;16.10;;;17.40;99.90;;;;;;5042760;28;20029;-79
2022/07/01 07:48:09;;;;;;;19.50;15.55;;;17.40;99.90;;;;;;5042813;28;20091;-79
2022/07/01 07:50:35;;;;;;;24.05;15.57;;;17.40;99.90;;;;;;5056512;28;20032;-79
2022/07/01 07:53:01;;;;;;;17.17;15.27;;;17.50;99.90;;;;;;5043404;28;20072;-79
2022/07/01 07:55:28;;;;;;;21.08;15.60;;;17.50;99.90;;;;;;5041780;28;20072;-80
2022/07/01 07:57:54;;;;;;;19.88;15.23;;;17.40;99.90;;;;;;5040595;28;20037;-78
2022/07/01 08:00:20;;;;;;;17.73;15.27;;;17.50;99.90;;;;;;5041054;28;20060;-78
2022/07/01 08:02:47;;;;;;;20.58;15.55;;;17.60;99.90;;;;;;5044046;28;20061;-79
2022/07/01 08:05:12;;;;;;;17.17;14.95;;;17.70;99.90;;;;;;5041248;28;20430;-79
2022/07/01 08:07:41;;;;;;;20.63;15.50;;;18.00;99.90;;;;;;5041030;28;20048;-79
2022/07/01 08:10:09;;;;;;;18.00;15.20;;;18.30;99.90;;;;;;5058671;28;20126;-78
2022/07/01 08:12:34;;;;;;;15.52;13.68;;;18.40;99.90;;;;;;5041434;28;20041;-78
2022/07/01 08:15:00;;;;;;;21.13;14.75;;;18.50;99.90;;;;;;5042165;28;20048;-79
2022/07/01 08:17:26;;;;;;;15.52;13.40;;;18.60;99.90;;;;;;5043745;28;20124;-79
2022/07/01 08:19:52;;;;;;;16.75;13.20;;;18.50;99.90;;;;;;5040549;28;20437;-79
2022/07/01 08:22:17;;;;;;;16.80;12.75;;;18.70;99.90;;;;;;5043496;28;20033;-79
2022/07/01 08:24:43;;;;;;;16.60;12.35;;;18.80;99.90;;;;;;5040881;28;20406;-79
2022/07/01 08:27:09;;;;;;;17.17;12.88;;;18.90;99.90;;;;;;5048389;28;20079;-79
2022/07/01 08:29:35;;;;;;;14.25;11.77;;;18.80;99.90;;;;;;5049855;28;20364;-81
2022/07/01 08:32:00;;;;;;;14.63;10.90;;;18.70;99.90;;;;;;5046882;28;20608;-80
2022/07/01 08:34:26;;;;;;;12.75;10.77;;;18.60;99.90;;;;;;5032726;28;20064;-80
2022/07/01 08:36:52;;;;;;;13.02;10.40;;;18.70;99.90;;;;;;5039028;28;20088;-79
2022/07/01 08:39:17;;;;;;;12.30;9.35;;;18.70;99.90;;;;;;5026134;28;20033;-79
2022/07/01 08:41:43;;;;;;;12.23;8.75;;;18.80;99.90;;;;;;5043610;28;20045;-79
2022/07/01 08:44:09;;;;;;;11.77;8.82;;;18.90;99.90;;;;;;5037523;28;20071;-78
2022/07/01 08:46:35;;;;;;;12.23;9.73;;;19.00;99.90;;;;;;5045711;28;20069;-78
2022/07/01 08:49:01;;;;;;;11.00;9.00;;;19.20;99.90;;;;;;5041550;28;20037;-78
2022/07/01 08:51:27;;;;;;;14.00;9.65;;;19.50;99.90;;;;;;5038299;28;20049;-78
2022/07/01 08:53:52;;;;;;;12.13;9.68;;;19.70;99.90;;;;;;5040181;28;20423;-79
2022/07/01 08:59:02;;;;;;;;;;;19.70;99.90;;;;;;5058986;28;20499;-79
2022/07/01 09:01:28;;;;;;;10.80;7.45;;;19.90;99.90;;;;;;5046905;28;20015;-78
2022/07/01 09:03:55;;;;;;;12.30;7.13;;;19.90;99.90;;;;;;5044659;28;20128;-78
2022/07/01 09:06:23;;;;;;;11.80;7.45;;;20.00;99.90;;;;;;5045192;28;20049;-79
2022/07/01 09:08:49;;;;;;;8.57;7.40;;;20.10;99.90;;;;;;5045942;28;20415;-78
2022/07/01 09:11:17;;;;;;;10.55;8.00;;;20.30;99.90;;;;;;5046889;28;20037;-76
2022/07/01 09:13:43;;;;;;;9.45;8.00;;;20.40;99.90;;;;;;5044545;28;20693;-76
2022/07/01 09:16:14;;;;;;;12.88;8.25;;;20.40;99.90;;;;;;5046125;28;20574;-77
2022/07/01 09:18:40;;;;;;;11.93;7.57;;;20.40;99.90;;;;;;5045521;28;20051;-77
2022/07/01 09:21:13;;;;;;;14.23;6.70;;;20.20;99.90;;;;;;5048896;28;20037;-77
2022/07/01 09:23:39;;;;;;;12.50;6.45;;;20.10;99.90;;;;;;5052121;28;20398;-77
2022/07/01 09:26:05;;;;;;;8.55;6.63;;;20.10;99.90;;;;;;5049759;28;20033;-78
2022/07/01 09:28:30;;;;;;;8.00;6.05;;;20.20;99.90;;;;;;5035597;28;20449;-77
2022/07/01 09:30:58;;;;;;;7.88;5.68;;;20.20;99.90;;;;;;5035241;28;20034;-77
2022/07/01 09:33:28;;;;;;;8.13;5.15;;;20.30;99.90;;;;;;5033083;28;20039;-77
2022/07/01 09:35:55;;;;;;;8.93;5.15;;;20.30;99.90;;;;;;5031919;28;20038;-76
2022/07/01 09:38:25;;;;;;;8.27;5.10;;;20.40;99.90;;;;;;5032428;28;20068;-77
2022/07/01 09:40:55;;;;;;;6.78;4.10;;;20.40;99.90;;;;;;5035071;28;20037;-77
2022/07/01 09:43:32;;;;;;;7.97;4.47;;;20.50;99.90;;;;;;5042406;28;20044;-78
2022/07/01 09:46:02;;;;;;;8.32;3.65;;;20.40;99.90;;;;;;5032299;28;20037;-77
2022/07/01 09:48:48;;;;;;;8.35;3.42;;;20.40;99.90;;;;;;5033084;28;20458;-77
2022/07/01 09:51:18;;;;;;;8.30;3.72;;;20.50;99.90;;;;;;5030456;28;20056;-77
2022/07/01 09:53:44;;;;;;;8.82;4.70;;;20.70;99.90;;;;;;5051358;28;20041;-77
2022/07/01 09:56:09;;;;;;;6.00;3.92;;;20.60;99.90;;;;;;5031202;28;20056;-78
2022/07/01 09:58:38;;;;;;;6.60;3.80;;;20.60;99.90;;;;;;5033551;28;20495;-77
2022/07/01 10:01:04;;;;;;;7.38;3.83;;;20.70;99.90;;;;;;5050379;28;20112;-78
2022/07/01 10:03:32;;;;;;;6.70;3.70;;;20.60;99.90;;;;;;5047219;28;20121;-76
2022/07/01 10:06:13;;;;;;;7.40;3.80;;;20.60;99.90;;;;;;5049108;28;20033;-77
2022/07/01 10:08:55;;;;;;;5.88;4.50;;;20.80;99.90;;;;;;5046170;28;20069;-77
2022/07/01 10:11:42;;;;;;;12.95;4.63;;;20.90;99.90;;;;;;5046150;28;20036;-77
2022/07/01 10:14:10;;;;;;;7.95;4.22;;;20.80;99.90;;;;;;5050430;28;20052;-77
2022/07/01 10:16:38;;;;;;;6.53;3.60;;;20.70;99.90;;;;;;5045678;28;20052;-76
2022/07/01 10:19:23;;;;;;;7.47;3.60;;;20.70;99.90;;;;;;5046314;28;20041;-77
2022/07/01 10:21:51;;;;;;;7.43;3.90;;;20.90;99.90;;;;;;5049361;28;20037;-77
2022/07/01 10:24:18;;;;;;;7.07;3.50;;;21.10;99.90;;;;;;5031206;28;20037;-77
2022/07/01 10:26:45;;;;;;;6.60;3.72;;;21.30;99.90;;;;;;5022673;28;20503;-78
2022/07/01 10:29:38;;;;;;;8.38;3.88;;;21.50;99.90;;;;;;5016597;28;20033;-77
2022/07/01 10:32:27;;;;;;;8.65;3.70;;;21.30;99.90;;;;;;5041106;28;20049;-77
2022/07/01 10:35:04;;;;;;;12.98;4.10;;;21.30;99.90;;;;;;5030461;28;20124;-77
2022/07/01 10:37:30;;;;;;;14.30;3.90;;;21.20;99.90;;;;;;5050548;28;20449;-77
2022/07/01 10:39:58;;;;;;;5.68;3.70;;;21.00;99.90;;;;;;5050577;28;20033;-82
2022/07/01 10:42:29;;;;;;;8.48;3.95;;;21.00;99.90;;;;;;5023910;28;20033;-78
2022/07/01 10:45:01;;;;;;;6.53;3.85;;;21.00;99.90;;;;;;5043720;28;20029;-78
2022/07/01 10:47:27;;;;;;;8.88;3.33;;;20.80;99.90;;;;;;5046187;28;20040;-77
2022/07/01 10:49:54;;;;;;;7.43;3.80;;;20.80;99.90;;;;;;5048935;28;20202;-77
2022/07/01 10:52:19;;;;;;;5.55;3.55;;;21.30;99.90;;;;;;5047853;28;20119;-77
2022/07/01 10:54:48;;;;;;;7.40;3.40;;;21.50;99.90;;;;;;5031233;28;20148;-77
2022/07/01 10:57:19;;;;;;;4.55;2.90;;;21.40;99.90;;;;;;5042828;28;20041;-77
2022/07/01 10:59:50;;;;;;;6.32;2.63;;;21.30;99.90;;;;;;5022171;28;20083;-77
2022/07/01 11:02:20;;;;;;;6.30;1.70;;;20.90;99.90;;;;;;5034976;28;20037;-76
2022/07/01 11:04:46;;;;;;;2.38;1.10;;;20.50;99.90;;;;;;5056867;28;20450;-77
2022/07/01 11:07:12;;;;;;;3.15;0.80;;;20.00;99.90;;;;;;5033558;28;20102;-76
2022/07/01 11:09:38;;;;;;;2.72;0.90;;;19.70;99.90;;;;;;5031335;28;20037;-76
2022/07/01 11:12:06;;;;;;;2.40;0.90;;;19.30;99.90;;;;;;5043697;28;20080;-76
2022/07/01 11:14:40;;;;;;;4.00;1.13;;;19.10;99.90;;;;;;5049367;28;20044;-76
2022/07/01 11:17:05;;;;;;;;;;;18.90;99.90;;;;;;5049546;28;20113;-76
2022/07/01 11:19:31;;;;;;;1.77;0.70;;;18.70;99.90;;;;;;5035335;28;20382;-76
2022/07/01 11:21:58;;;;;;;3.22;0.90;;;18.50;99.90;;;;;;5034720;28;20519;-76
2022/07/01 11:24:24;;;;;;;2.83;0.88;;;18.40;99.90;;;;;;5041391;28;20042;-76
2022/07/01 11:26:54;;;;;;;2.58;0.90;;;18.40;99.90;;;;;;5044164;28;20048;-76
2022/07/01 11:29:28;;;;;;;3.28;0.80;;;18.50;99.90;;;;;;5043713;28;20099;-76
2022/07/01 11:31:53;;;;;;;;;;;18.60;99.90;;;;;;5044338;28;20082;-76
2022/07/01 11:34:19;;;;;;;3.00;1.13;;;18.90;99.90;;;;;;5042477;28;19925;-77
2022/07/01 11:39:34;;;;;;;2.92;1.27;;;19.40;99.90;;;;;;5036665;28;20049;-77
2022/07/01 11:42:06;;;;;;;6.13;1.30;;;19.80;99.90;;;;;;5051024;28;20029;-78
2022/07/01 11:44:40;;;;;;;4.72;1.23;;;20.10;99.90;;;;;;5047503;28;20075;-79
2022/07/01 11:47:07;;;;;;;5.65;1.42;;;20.10;99.90;;;;;;5020674;28;20535;-78
2022/07/01 11:49:34;;;;;;;4.20;1.38;;;19.90;99.90;;;;;;5030400;28;20041;-78
2022/07/01 11:52:04;;;;;;;4.82;1.42;;;19.70;99.90;;;;;;5035972;28;20041;-78
2022/07/01 11:54:35;;;;;;;4.53;1.45;;;19.70;99.90;;;;;;5036493;28;20411;-78
2022/07/01 11:57:22;;;;;;;4.20;1.45;;;19.80;99.90;;;;;;5028799;28;20414;-79
2022/07/01 11:59:49;;;;;;;6.43;1.35;;;20.40;99.90;;;;;;5030019;28;20045;-79
2022/07/01 12:02:16;;;;;;;4.72;1.10;;;20.90;99.90;;;;;;5028138;28;20038;-79
2022/07/01 12:04:43;;;;;;;3.47;1.10;;;21.50;99.90;;;;;;5030934;28;20329;-79
2022/07/01 12:07:10;;;;;;;13.45;1.73;;;22.00;99.90;;;;;;5030418;28;20037;-80
2022/07/01 12:09:36;;;;;;;6.60;1.45;;;22.30;99.90;;;;;;5030616;28;20043;-79
2022/07/01 12:12:03;;;;;;;6.18;1.25;;;21.90;99.90;;;;;;5030611;28;20048;-79
2022/07/01 12:14:31;;;;;;;4.20;1.38;;;21.70;99.90;;;;;;5013032;28;20091;-80
2022/07/01 12:17:00;;;;;;;3.65;1.10;;;21.50;99.90;;;;;;5030499;28;20078;-80
2022/07/01 12:19:47;;;;;;;4.85;1.25;;;22.00;99.90;;;;;;5030362;28;20045;-80
2022/07/01 12:22:15;;;;;;;4.53;0.90;;;22.00;99.90;;;;;;5030291;28;20121;-80
2022/07/01 12:24:42;;;;;;;3.58;0.80;;;22.50;99.90;;;;;;5013855;28;20083;-80
2022/07/01 12:27:09;;;;;;;4.50;1.40;;;23.10;99.90;;;;;;5031465;28;20041;-81
2022/07/01 12:29:47;;;;;;;4.65;0.80;;;23.40;99.90;;;;;;5031476;28;20112;-81
2022/07/01 12:32:18;;;;;;;4.05;0.80;;;23.80;99.90;;;;;;5029853;28;20045;-81
2022/07/01 12:34:51;;;;;;;2.55;0.80;;;24.10;99.90;;;;;;5030030;28;20037;-81
2022/07/01 12:37:19;;;;;;;3.75;0.77;;;24.50;99.90;;;;;;5031029;28;20385;-82
2022/07/01 12:39:50;;;;;;;4.47;0.80;;;24.50;99.90;;;;;;5014873;28;20097;-81
2022/07/01 12:42:23;;;;;;;2.85;0.80;;;24.30;99.90;;;;;;5030372;28;20033;-79
2022/07/01 12:44:48;;;;;;;4.55;0.73;;;24.50;99.90;;;;;;5030126;28;20041;-80
2022/07/01 12:47:44;;;;;;;3.25;0.73;;;24.60;99.90;;;;;;5031254;28;20045;-81
2022/07/01 12:50:10;;;;;;;4.32;0.90;;;24.50;99.10;;;;;;5030723;28;20053;-81
2022/07/01 12:52:36;;;;;;;6.22;0.63;;;24.60;99.90;;;;;;5030533;28;20048;-81